createdAt,value
2022-11-18T00:01:22.916Z,3.20
2022-11-18T00:03:53.004Z,3.09
2022-11-18T00:06:26.680Z,3.07
2022-11-18T00:08:55.648Z,3.18
2022-11-18T00:11:45.078Z,3.15
2022-11-18T00:14:19.167Z,3.17
2022-11-18T00:16:51.027Z,3.20
2022-11-18T00:19:21.135Z,3.20
2022-11-18T00:21:49.761Z,3.21
2022-11-18T00:24:18.153Z,3.23
2022-11-18T00:26:46.734Z,3.27
2022-11-18T00:29:14.485Z,3.28
2022-11-18T00:31:42.615Z,3.25
2022-11-18T00:34:13.867Z,3.33
2022-11-18T00:36:43.053Z,3.23
2022-11-18T00:39:13.459Z,3.25
2022-11-18T00:42:00.825Z,3.11
2022-11-18T00:44:28.189Z,3.07
2022-11-18T00:46:56.125Z,3.18
2022-11-18T00:49:24.470Z,3.21
2022-11-18T00:51:52.170Z,3.29
2022-11-18T00:54:19.806Z,3.28
2022-11-18T00:56:47.364Z,3.38
2022-11-18T00:59:14.667Z,3.46
2022-11-18T01:01:42.275Z,3.48
2022-11-18T01:04:09.468Z,3.51
2022-11-18T01:06:36.884Z,3.37
2022-11-18T01:09:04.336Z,3.47
2022-11-18T01:11:50.365Z,3.45
2022-11-18T01:14:18.127Z,3.51
2022-11-18T01:16:51.119Z,3.49
2022-11-18T01:19:19.334Z,3.44
2022-11-18T01:21:47.518Z,3.42
2022-11-18T01:24:14.846Z,3.38
2022-11-18T01:26:42.586Z,3.27
2022-11-18T01:29:10.394Z,3.34
2022-11-18T01:31:50.178Z,3.44
2022-11-18T01:34:29.431Z,3.40
2022-11-18T01:36:58.624Z,3.35
2022-11-18T01:39:26.258Z,3.31
2022-11-18T01:41:53.774Z,3.30
2022-11-18T01:44:58.501Z,3.27
2022-11-18T01:47:40.923Z,3.19
2022-11-18T01:50:09.811Z,3.25
2022-11-18T01:52:40.225Z,3.16
2022-11-18T01:55:24.060Z,3.19
2022-11-18T01:57:59.492Z,3.19
2022-11-18T02:00:26.647Z,3.21
2022-11-18T02:02:54.485Z,3.18
2022-11-18T02:05:22.789Z,3.14
2022-11-18T02:07:51.458Z,3.21
2022-11-18T02:10:23.775Z,3.02
2022-11-18T02:12:54.417Z,3.06
2022-11-18T02:15:45.420Z,3.01
2022-11-18T02:18:56.731Z,3.01
2022-11-18T02:21:32.285Z,3.01
2022-11-18T02:24:27.320Z,2.94
2022-11-18T02:27:58.240Z,3.09
2022-11-18T02:30:26.423Z,2.99
2022-11-18T02:33:10.371Z,2.93
2022-11-18T02:35:46.915Z,2.92
2022-11-18T02:38:31.361Z,2.82
2022-11-18T02:41:08.160Z,2.83
2022-11-18T02:43:46.137Z,2.78
2022-11-18T02:46:24.012Z,2.79
2022-11-18T02:48:54.330Z,2.93
2022-11-18T02:51:28.536Z,2.92
2022-11-18T02:54:02.971Z,2.87
2022-11-18T02:56:33.135Z,2.98
2022-11-18T02:59:00.325Z,3.07
2022-11-18T03:01:32.578Z,3.19
2022-11-18T03:04:00.357Z,3.23
2022-11-18T03:06:55.937Z,3.30
2022-11-18T03:09:38.274Z,3.32
2022-11-18T03:12:18.848Z,3.29
2022-11-18T03:15:04.734Z,3.34
2022-11-18T03:18:28.400Z,3.25
2022-11-18T03:21:08.700Z,3.23
2022-11-18T03:23:52.129Z,3.24
2022-11-18T03:26:36.288Z,3.20
2022-11-18T03:29:18.983Z,3.38
2022-11-18T03:31:56.929Z,3.31
2022-11-18T03:34:49.611Z,3.18
2022-11-18T03:37:21.073Z,3.26
2022-11-18T03:39:59.300Z,3.25
2022-11-18T03:42:42.707Z,3.31
2022-11-18T03:45:25.330Z,3.36
2022-11-18T03:48:04.113Z,3.32
2022-11-18T03:50:40.722Z,3.23
2022-11-18T03:53:09.917Z,3.10
2022-11-18T03:55:44.758Z,3.04
2022-11-18T03:59:08.076Z,2.94
2022-11-18T04:01:56.255Z,2.90
2022-11-18T04:04:27.141Z,2.93
2022-11-18T04:07:27.156Z,2.79
2022-11-18T04:10:09.079Z,2.91
2022-11-18T04:12:46.082Z,2.80
2022-11-18T04:15:13.329Z,2.70
2022-11-18T04:17:43.162Z,2.74
2022-11-18T04:20:21.752Z,2.60
2022-11-18T04:22:49.457Z,2.56
2022-11-18T04:25:17.148Z,2.53
2022-11-18T04:27:44.614Z,2.70
2022-11-18T04:30:12.715Z,2.69
2022-11-18T04:32:42.295Z,2.56
2022-11-18T04:35:09.536Z,2.66
2022-11-18T04:37:37.045Z,2.69
2022-11-18T04:40:05.274Z,2.66
2022-11-18T04:42:32.946Z,2.62
2022-11-18T04:45:00.204Z,2.61
2022-11-18T04:47:27.658Z,2.72
2022-11-18T04:49:54.790Z,2.77
2022-11-18T04:52:22.413Z,2.75
2022-11-18T04:54:49.633Z,2.52
2022-11-18T04:57:17.100Z,2.60
2022-11-18T04:59:44.241Z,2.48
2022-11-18T05:02:12.760Z,2.58
2022-11-18T05:04:40.022Z,2.56
2022-11-18T05:07:08.040Z,2.45
2022-11-18T05:09:35.325Z,2.48
2022-11-18T05:12:21.260Z,2.40
2022-11-18T05:14:50.896Z,2.41
2022-11-18T05:17:19.465Z,2.47
2022-11-18T05:19:46.708Z,2.50
2022-11-18T05:22:15.800Z,2.35
2022-11-18T05:24:42.951Z,2.30
2022-11-18T05:27:11.774Z,2.25
2022-11-18T05:29:38.908Z,2.39
2022-11-18T05:32:06.476Z,2.27
2022-11-18T05:34:33.583Z,2.13
2022-11-18T05:37:01.064Z,2.17
2022-11-18T05:39:28.238Z,1.98
2022-11-18T05:42:13.957Z,2.06
2022-11-18T05:44:41.116Z,2.04
2022-11-18T05:47:08.697Z,2.02
2022-11-18T05:49:35.874Z,2.12
2022-11-18T05:52:03.570Z,2.06
2022-11-18T05:54:31.720Z,2.16
2022-11-18T05:56:59.241Z,2.25
2022-11-18T05:59:26.922Z,2.28
2022-11-18T06:02:13.121Z,2.28
2022-11-18T06:04:54.898Z,2.27
2022-11-18T06:07:41.882Z,2.34
2022-11-18T06:10:17.791Z,2.47
2022-11-18T06:12:49.847Z,2.28
2022-11-18T06:15:26.249Z,2.53
2022-11-18T06:18:23.324Z,2.60
2022-11-18T06:20:59.753Z,2.62
2022-11-18T06:23:35.718Z,2.51
2022-11-18T06:26:03.812Z,2.49
2022-11-18T06:28:31.714Z,2.60
2022-11-18T06:30:59.193Z,2.54
2022-11-18T06:33:26.647Z,2.60
2022-11-18T06:35:53.770Z,2.63
2022-11-18T06:38:25.138Z,2.58
2022-11-18T06:40:52.566Z,2.69
2022-11-18T06:43:38.681Z,2.62
2022-11-18T06:46:27.462Z,2.62
2022-11-18T06:48:55.006Z,2.59
2022-11-18T06:51:22.345Z,2.53
2022-11-18T06:53:50.218Z,2.62
2022-11-18T06:56:20.316Z,2.42
2022-11-18T06:58:52.517Z,2.50
2022-11-18T07:01:23.609Z,2.46
2022-11-18T07:03:52.225Z,2.39
2022-11-18T07:06:32.243Z,2.36
2022-11-18T07:09:07.175Z,2.24
2022-11-18T07:11:34.901Z,2.41
2022-11-18T07:14:02.643Z,2.38
2022-11-18T07:16:30.191Z,2.35
2022-11-18T07:18:57.807Z,2.49
2022-11-18T07:21:29.074Z,2.38
2022-11-18T07:23:57.235Z,2.47
2022-11-18T07:26:24.917Z,2.59
2022-11-18T07:28:53.898Z,2.60
2022-11-18T07:31:21.484Z,2.42
2022-11-18T07:33:50.019Z,2.46
2022-11-18T07:36:24.527Z,2.46
2022-11-18T07:38:53.100Z,2.72
2022-11-18T07:41:27.074Z,2.61
2022-11-18T07:44:00.538Z,2.63
2022-11-18T07:46:33.002Z,2.71
2022-11-18T07:49:04.056Z,2.74
2022-11-18T07:51:38.221Z,2.75
2022-11-18T07:54:12.004Z,2.60
2022-11-18T07:56:39.415Z,2.70
2022-11-18T07:59:07.835Z,2.86
2022-11-18T08:01:35.311Z,2.89
2022-11-18T08:04:13.129Z,2.98
2022-11-18T08:06:41.246Z,3.18
2022-11-18T08:09:09.654Z,3.27
2022-11-18T08:11:37.780Z,3.16
2022-11-18T08:14:05.545Z,3.10
2022-11-18T08:16:32.717Z,3.15
2022-11-18T08:19:01.014Z,3.25
2022-11-18T08:21:28.701Z,3.20
2022-11-18T08:23:58.198Z,3.30
2022-11-18T08:26:26.589Z,3.19
2022-11-18T08:28:54.599Z,3.18
2022-11-18T08:31:28.892Z,3.20
2022-11-18T08:34:02.847Z,3.45
2022-11-18T08:36:33.808Z,3.34
2022-11-18T08:39:04.748Z,3.33
2022-11-18T08:41:35.621Z,3.38
2022-11-18T08:44:05.504Z,3.32
2022-11-18T08:46:33.491Z,3.34
2022-11-18T08:49:01.462Z,3.34
2022-11-18T08:51:29.236Z,3.26
2022-11-18T08:53:57.335Z,3.51
2022-11-18T08:56:25.851Z,3.42
2022-11-18T08:58:53.791Z,3.34
2022-11-18T09:01:21.237Z,3.41
2022-11-18T09:03:49.551Z,3.54
2022-11-18T09:06:20.424Z,3.75
2022-11-18T09:08:48.595Z,3.62
2022-11-18T09:11:19.293Z,3.84
2022-11-18T09:14:32.740Z,3.66
2022-11-18T09:16:35.933Z,3.74
2022-11-18T09:19:31.590Z,3.93
2022-11-18T09:21:52.087Z,3.55
2022-11-18T09:24:19.819Z,3.69
2022-11-18T09:26:48.316Z,3.81
2022-11-18T09:29:15.602Z,3.81
2022-11-18T09:31:43.086Z,3.96
2022-11-18T09:34:10.545Z,3.95
2022-11-18T09:36:38.208Z,3.86
2022-11-18T09:39:05.656Z,3.71
2022-11-18T09:41:52.287Z,3.66
2022-11-18T09:45:19.408Z,3.53
2022-11-18T09:47:51.694Z,3.63
2022-11-18T09:53:23.806Z,3.44
2022-11-18T09:55:52.658Z,3.17
2022-11-18T09:58:28.083Z,3.13
2022-11-18T10:00:55.367Z,3.07
2022-11-18T10:03:32.730Z,3.20
2022-11-18T10:06:27.650Z,3.26
2022-11-18T10:09:11.094Z,3.29
2022-11-18T10:12:05.182Z,3.35
2022-11-18T10:14:57.364Z,3.31
2022-11-18T10:17:53.442Z,3.10
2022-11-18T10:20:44.957Z,3.00
2022-11-18T10:23:50.449Z,3.16
2022-11-18T10:26:38.482Z,3.17
2022-11-18T10:29:10.256Z,2.94
2022-11-18T10:31:40.806Z,2.86
2022-11-18T10:34:13.855Z,2.94
2022-11-18T10:36:41.374Z,2.95
2022-11-18T10:39:15.093Z,2.87
2022-11-18T10:41:49.797Z,2.85
2022-11-18T10:44:39.544Z,2.78
2022-11-18T10:47:27.441Z,2.73
2022-11-18T10:49:59.915Z,2.81
2022-11-18T10:52:30.054Z,2.81
2022-11-18T10:55:18.434Z,2.84
2022-11-18T10:57:47.650Z,2.86
2022-11-18T11:00:38.280Z,2.91
2022-11-18T11:03:37.874Z,2.85
2022-11-18T11:06:21.324Z,2.88
2022-11-18T11:09:10.189Z,2.75
2022-11-18T11:11:57.199Z,2.75
2022-11-18T11:14:52.412Z,2.80
2022-11-18T11:17:30.570Z,2.82
2022-11-18T11:20:04.393Z,3.01
2022-11-18T11:22:32.958Z,3.01
2022-11-18T11:25:00.537Z,3.19
2022-11-18T11:28:16.670Z,3.18
2022-11-18T11:31:12.836Z,3.06
2022-11-18T11:33:52.815Z,3.05
2022-11-18T11:36:57.551Z,3.11
2022-11-18T11:39:59.788Z,3.19
2022-11-18T11:42:54.103Z,3.23
2022-11-18T11:46:13.329Z,3.39
2022-11-18T11:48:56.879Z,3.42
2022-11-18T11:51:58.284Z,3.13
2022-11-18T11:54:38.032Z,3.30
2022-11-18T11:57:33.450Z,3.34
2022-11-18T12:00:09.379Z,3.42
2022-11-18T12:03:34.849Z,3.28
2022-11-18T12:06:02.358Z,3.20
2022-11-18T12:08:32.624Z,3.28
2022-11-18T12:11:25.901Z,3.26
2022-11-18T12:14:25.969Z,2.95
2022-11-18T12:17:25.108Z,2.90
2022-11-18T12:19:52.364Z,2.87
2022-11-18T12:22:19.829Z,2.78
2022-11-18T12:24:46.975Z,2.59
2022-11-18T12:27:30.441Z,2.53
2022-11-18T12:30:02.128Z,2.53
2022-11-18T12:32:46.702Z,2.32
2022-11-18T12:35:13.946Z,2.31
2022-11-18T12:37:52.178Z,2.19
2022-11-18T12:40:50.612Z,2.18
2022-11-18T12:43:44.505Z,2.16
2022-11-18T12:46:34.909Z,2.15
2022-11-18T12:49:22.654Z,2.05
2022-11-18T12:52:15.015Z,2.16
2022-11-18T12:54:49.236Z,2.14
2022-11-18T12:57:32.403Z,2.09
2022-11-18T13:00:17.188Z,1.89
2022-11-18T13:03:00.427Z,2.07
2022-11-18T13:05:32.912Z,2.10
2022-11-18T13:08:13.883Z,2.09
2022-11-18T13:11:37.319Z,2.08
2022-11-18T13:14:32.541Z,2.21
2022-11-18T13:17:18.855Z,2.11
2022-11-18T13:19:57.761Z,2.15
2022-11-18T13:22:44.021Z,2.11
2022-11-18T13:25:33.626Z,2.13
2022-11-18T13:28:31.879Z,2.07
2022-11-18T13:31:07.407Z,2.04
2022-11-18T13:33:38.607Z,1.93
2022-11-18T13:36:25.903Z,1.90
2022-11-18T13:39:03.384Z,1.82
2022-11-18T13:41:34.325Z,1.89
2022-11-18T13:44:24.267Z,1.75
2022-11-18T13:47:16.033Z,1.71
2022-11-18T13:50:11.696Z,1.87
2022-11-18T13:53:09.308Z,1.67
2022-11-18T13:55:54.221Z,1.45
2022-11-18T14:01:34.861Z,1.38
2022-11-18T14:04:22.589Z,1.33
2022-11-18T14:06:50.775Z,1.25
2022-11-18T14:09:27.178Z,1.29
2022-11-18T14:11:57.796Z,1.28
2022-11-18T14:14:43.671Z,1.32
2022-11-18T14:17:23.966Z,1.49
2022-11-18T14:19:55.420Z,1.47
2022-11-18T14:22:27.166Z,1.54
2022-11-18T14:25:17.304Z,1.46
2022-11-18T14:27:54.696Z,1.41
2022-11-18T14:30:32.348Z,1.48
2022-11-18T14:33:31.692Z,1.43
2022-11-18T14:36:13.505Z,1.37
2022-11-18T14:39:31.672Z,1.39
2022-11-18T14:41:48.673Z,1.46
2022-11-18T14:44:18.822Z,1.45
2022-11-18T14:47:03.746Z,1.41
2022-11-18T14:49:32.998Z,1.31
2022-11-18T14:52:04.711Z,1.39
2022-11-18T14:54:33.050Z,1.46
2022-11-18T14:57:05.657Z,1.38
2022-11-18T14:59:33.507Z,1.35
2022-11-18T15:02:00.996Z,1.29
2022-11-18T15:04:28.632Z,1.15
2022-11-18T15:06:56.274Z,1.10
2022-11-18T15:09:24.932Z,1.03
2022-11-18T15:11:52.169Z,1.05
2022-11-18T15:14:19.827Z,1.31
2022-11-18T15:16:47.198Z,1.06
2022-11-18T15:19:16.526Z,1.24
2022-11-18T15:21:45.680Z,1.21
2022-11-18T15:24:13.710Z,1.28
2022-11-18T15:26:46.902Z,1.12
2022-11-18T15:29:24.314Z,1.17
2022-11-18T15:31:51.952Z,1.08
2022-11-18T15:34:21.283Z,1.18
2022-11-18T15:36:49.843Z,1.14
2022-11-18T15:39:17.476Z,0.99
2022-11-18T15:41:44.753Z,0.92
2022-11-18T15:44:13.331Z,1.05
2022-11-18T15:46:40.881Z,1.10
2022-11-18T15:49:14.670Z,0.89
2022-11-18T15:51:42.233Z,0.90
2022-11-18T15:54:09.935Z,0.99
2022-11-18T15:56:38.505Z,0.92
2022-11-18T15:59:17.624Z,0.78
2022-11-18T16:01:49.173Z,0.87
2022-11-18T16:04:19.417Z,0.87
2022-11-18T16:06:47.793Z,0.84
2022-11-18T16:09:17.541Z,0.89
2022-11-18T16:12:03.513Z,0.97
2022-11-18T16:14:31.057Z,0.95
2022-11-18T16:16:58.420Z,1.04
2022-11-18T16:19:27.453Z,1.12
2022-11-18T16:21:57.214Z,1.47
2022-11-18T16:24:28.988Z,1.42
2022-11-18T16:26:57.413Z,1.33
2022-11-18T16:29:25.344Z,1.22
2022-11-18T16:34:41.851Z,1.08
2022-11-18T16:37:09.297Z,1.14
2022-11-18T16:39:36.770Z,1.05
2022-11-18T16:40:28.340Z,1.15
2022-11-18T16:42:08.640Z,1.22
2022-11-18T16:44:37.803Z,1.14
2022-11-18T16:47:13.763Z,1.22
2022-11-18T16:49:43.391Z,1.23
2022-11-18T16:52:10.704Z,1.25
2022-11-18T16:54:44.692Z,1.31
2022-11-18T16:57:13.829Z,1.27
2022-11-18T16:59:41.608Z,1.28
2022-11-18T17:02:13.416Z,1.19
2022-11-18T17:04:41.373Z,1.16
2022-11-18T17:07:08.692Z,1.11
2022-11-18T17:09:37.883Z,1.11
2022-11-18T17:12:05.673Z,1.11
2022-11-18T17:14:33.199Z,1.16
2022-11-18T17:17:00.456Z,1.11
2022-11-18T17:19:27.946Z,1.05
2022-11-18T17:21:55.111Z,1.20
2022-11-18T17:24:24.146Z,1.18
2022-11-18T17:26:52.783Z,1.23
2022-11-18T17:29:21.216Z,1.20
2022-11-18T17:31:49.123Z,1.09
2022-11-18T17:34:17.110Z,1.13
2022-11-18T17:36:44.867Z,1.16
2022-11-18T17:39:13.482Z,1.13
2022-11-18T17:41:59.405Z,1.20
2022-11-18T17:44:28.568Z,1.21
2022-11-18T17:46:56.048Z,1.23
2022-11-18T17:49:23.856Z,1.18
2022-11-18T17:51:51.747Z,1.05
2022-11-18T17:54:21.286Z,1.07
2022-11-18T17:56:52.340Z,1.09
2022-11-18T17:59:20.911Z,0.97
2022-11-18T18:01:49.918Z,0.94
2022-11-18T18:04:21.549Z,0.99
2022-11-18T18:06:51.323Z,1.00
2022-11-18T18:09:21.815Z,0.96
2022-11-18T18:11:52.578Z,0.95
2022-11-18T18:14:20.387Z,1.03
2022-11-18T18:16:50.930Z,0.96
2022-11-18T18:19:23.787Z,1.02
2022-11-18T18:21:51.093Z,0.97
2022-11-18T18:24:20.964Z,1.02
2022-11-18T18:26:49.089Z,0.94
2022-11-18T18:29:16.700Z,0.97
2022-11-18T18:31:50.635Z,0.82
2022-11-18T18:34:18.741Z,0.79
2022-11-18T18:36:46.354Z,0.75
2022-11-18T18:39:13.897Z,0.78
2022-11-18T18:41:41.153Z,0.77
2022-11-18T18:44:10.430Z,0.74
2022-11-18T18:46:40.930Z,0.83
2022-11-18T18:49:20.492Z,0.77
2022-11-18T18:51:55.571Z,0.72
2022-11-18T18:54:23.249Z,0.66
2022-11-18T18:56:50.527Z,0.65
2022-11-18T18:59:18.059Z,0.70
2022-11-18T19:01:45.579Z,0.71
2022-11-18T19:04:14.385Z,0.67
2022-11-18T19:06:54.934Z,0.64
2022-11-18T19:09:26.306Z,0.69
2022-11-18T19:12:12.766Z,0.67
2022-11-18T19:14:40.621Z,0.53
2022-11-18T19:17:12.650Z,0.63
2022-11-18T19:20:01.084Z,0.65
2022-11-18T19:22:33.427Z,0.67
2022-11-18T19:25:01.787Z,0.66
2022-11-18T19:27:30.253Z,0.74
2022-11-18T19:29:58.495Z,0.70
2022-11-18T19:32:25.985Z,0.71
2022-11-18T19:34:53.464Z,0.54
2022-11-18T19:37:20.809Z,0.61
2022-11-18T19:39:48.517Z,0.62
2022-11-18T19:42:15.912Z,0.66
2022-11-18T19:44:43.479Z,0.71
2022-11-18T19:47:11.020Z,0.63
2022-11-18T19:49:38.550Z,0.66
2022-11-18T19:52:05.789Z,0.62
2022-11-18T19:54:33.419Z,0.66
2022-11-18T19:57:03.949Z,0.70
2022-11-18T19:59:31.715Z,0.71
2022-11-18T20:01:59.187Z,0.77
2022-11-18T20:04:26.886Z,0.73
2022-11-18T20:06:54.281Z,0.77
2022-11-18T20:09:21.966Z,0.88
2022-11-18T20:11:49.572Z,0.94
2022-11-18T20:14:17.660Z,0.99
2022-11-18T20:16:44.929Z,1.00
2022-11-18T20:19:13.766Z,0.99
2022-11-18T20:21:43.469Z,0.99
2022-11-18T20:24:17.111Z,1.03
2022-11-18T20:26:45.355Z,1.07
2022-11-18T20:29:13.584Z,1.07
2022-11-18T20:31:41.699Z,1.18
2022-11-18T20:34:14.487Z,1.19
2022-11-18T20:36:42.341Z,0.98
2022-11-18T20:39:15.517Z,1.08
2022-11-18T20:41:43.711Z,1.06
2022-11-18T20:44:11.216Z,1.02
2022-11-18T20:46:38.431Z,0.97
2022-11-18T20:49:05.934Z,0.98
2022-11-18T20:51:33.188Z,0.95
2022-11-18T20:54:00.794Z,0.87
2022-11-18T20:56:28.619Z,0.88
2022-11-18T20:58:59.105Z,0.97
2022-11-18T21:01:29.710Z,1.03
2022-11-18T21:04:01.139Z,1.02
2022-11-18T21:06:31.694Z,1.00
2022-11-18T21:09:02.806Z,0.97
2022-11-18T21:11:34.725Z,1.02
2022-11-18T21:14:23.970Z,1.06
2022-11-18T21:16:55.649Z,1.09
2022-11-18T21:19:23.771Z,1.08
2022-11-18T21:21:53.910Z,1.11
2022-11-18T21:24:31.071Z,1.02
2022-11-18T21:26:59.863Z,1.03
2022-11-18T21:29:30.736Z,1.04
2022-11-18T21:32:02.267Z,1.05
2022-11-18T21:34:30.452Z,0.92
2022-11-18T21:36:58.218Z,0.84
2022-11-18T21:39:26.039Z,0.79
2022-11-18T21:41:56.790Z,0.79
2022-11-18T21:44:28.419Z,0.83
2022-11-18T21:46:56.494Z,0.81
2022-11-18T21:49:24.033Z,0.82
2022-11-18T21:51:51.244Z,0.85
2022-11-18T21:54:18.782Z,0.86
2022-11-18T21:56:46.042Z,0.94
2022-11-18T21:59:14.030Z,0.98
2022-11-18T22:01:41.201Z,0.88
2022-11-18T22:04:29.115Z,0.90
2022-11-18T22:06:56.383Z,0.87
2022-11-18T22:09:23.941Z,0.81
2022-11-18T22:11:51.057Z,0.80
2022-11-18T22:14:18.542Z,0.77
2022-11-18T22:16:45.726Z,0.74
2022-11-18T22:19:13.155Z,0.73
2022-11-18T22:21:40.321Z,0.78
2022-11-18T22:24:08.532Z,0.79
2022-11-18T22:26:35.686Z,0.80
2022-11-18T22:29:03.396Z,0.78
2022-11-18T22:31:30.754Z,0.82
2022-11-18T22:33:58.246Z,0.89
2022-11-18T22:36:26.919Z,0.93
2022-11-18T22:38:55.913Z,1.05
2022-11-18T22:41:45.344Z,1.00
2022-11-18T22:44:16.269Z,0.85
2022-11-18T22:46:45.291Z,0.89
2022-11-18T22:49:13.860Z,0.95
2022-11-18T22:51:41.412Z,0.89
2022-11-18T22:54:37.037Z,0.95
2022-11-18T22:56:57.260Z,0.97
2022-11-18T22:59:25.421Z,0.96
2022-11-18T23:01:53.064Z,0.99
2022-11-18T23:04:21.578Z,0.95
2022-11-18T23:06:49.948Z,0.84
2022-11-18T23:09:17.943Z,0.83
2022-11-18T23:12:04.348Z,0.93
2022-11-18T23:14:31.931Z,1.00
2022-11-18T23:16:59.649Z,0.91
2022-11-18T23:19:27.110Z,1.02
2022-11-18T23:21:54.230Z,1.03
2022-11-18T23:24:21.929Z,1.06
2022-11-18T23:26:49.327Z,1.11
2022-11-18T23:29:17.590Z,1.06
2022-11-18T23:31:45.639Z,1.04
2022-11-18T23:34:15.358Z,1.09
2022-11-18T23:36:42.697Z,1.10
2022-11-18T23:39:10.640Z,1.17
2022-11-18T23:41:38.716Z,1.19
2022-11-18T23:44:06.531Z,1.26
2022-11-18T23:46:34.776Z,1.34
2022-11-18T23:49:02.284Z,1.35
2022-11-18T23:51:29.527Z,1.35
2022-11-18T23:53:58.128Z,1.33
2022-11-18T23:56:27.923Z,1.34
2022-11-18T23:58:56.836Z,1.39
